sensor_id;sensor_type;location;lat;lon;timestamp;pressure;altitude;pressure_sealevel;temperature;humidity
4981;BME280;2507;50.392;7.482;2023-05-24T00:02:17;101414.94;;;11.59;64.50
4981;BME280;2507;50.392;7.482;2023-05-24T00:04:44;101414.28;;;11.56;64.95
4981;BME280;2507;50.392;7.482;2023-05-24T00:07:09;101415.78;;;11.46;64.47
4981;BME280;2507;50.392;7.482;2023-05-24T00:09:34;101421.13;;;11.44;64.59
4981;BME280;2507;50.392;7.482;2023-05-24T00:12:00;101424.41;;;11.48;64.74
4981;BME280;2507;50.392;7.482;2023-05-24T00:14:25;101426.66;;;11.54;64.53
4981;BME280;2507;50.392;7.482;2023-05-24T00:16:51;101433.25;;;11.47;64.57
4981;BME280;2507;50.392;7.482;2023-05-24T00:19:16;101432.28;;;11.48;64.57
4981;BME280;2507;50.392;7.482;2023-05-24T00:21:46;101434.72;;;11.37;64.76
4981;BME280;2507;50.392;7.482;2023-05-24T00:24:12;101444.88;;;11.28;64.79
4981;BME280;2507;50.392;7.482;2023-05-24T00:26:37;101442.97;;;11.16;65.05
4981;BME280;2507;50.392;7.482;2023-05-24T00:29:02;101439.03;;;11.09;65.20
4981;BME280;2507;50.392;7.482;2023-05-24T00:31:28;101441.38;;;11.00;65.30
4981;BME280;2507;50.392;7.482;2023-05-24T00:33:53;101440.88;;;10.93;65.77
4981;BME280;2507;50.392;7.482;2023-05-24T00:36:18;101440.09;;;10.91;65.53
4981;BME280;2507;50.392;7.482;2023-05-24T00:38:44;101444.53;;;10.91;65.50
4981;BME280;2507;50.392;7.482;2023-05-24T00:41:09;101445.75;;;10.85;65.65
4981;BME280;2507;50.392;7.482;2023-05-24T00:43:35;101451.16;;;10.82;65.46
4981;BME280;2507;50.392;7.482;2023-05-24T00:46:15;101448.03;;;10.76;65.61
4981;BME280;2507;50.392;7.482;2023-05-24T00:48:42;101446.34;;;10.75;66.06
4981;BME280;2507;50.392;7.482;2023-05-24T00:51:08;101450.38;;;10.80;65.83
4981;BME280;2507;50.392;7.482;2023-05-24T00:53:35;101442.34;;;10.83;65.81
4981;BME280;2507;50.392;7.482;2023-05-24T00:56:02;101444.56;;;10.75;66.39
4981;BME280;2507;50.392;7.482;2023-05-24T00:58:29;101447.53;;;10.69;66.16
4981;BME280;2507;50.392;7.482;2023-05-24T01:00:58;101441.03;;;10.61;66.47
4981;BME280;2507;50.392;7.482;2023-05-24T01:03:24;101440.56;;;10.54;66.31
4981;BME280;2507;50.392;7.482;2023-05-24T01:05:54;101438.84;;;10.53;66.64
4981;BME280;2507;50.392;7.482;2023-05-24T01:11:00;101439.72;;;10.54;66.47
4981;BME280;2507;50.392;7.482;2023-05-24T01:13:45;101436.66;;;10.46;66.48
4981;BME280;2507;50.392;7.482;2023-05-24T01:16:19;101434.31;;;10.41;66.94
4981;BME280;2507;50.392;7.482;2023-05-24T01:18:50;101437.78;;;10.42;66.96
4981;BME280;2507;50.392;7.482;2023-05-24T01:21:34;101438.97;;;10.36;67.03
4981;BME280;2507;50.392;7.482;2023-05-24T01:24:24;101434.41;;;10.40;66.99
4981;BME280;2507;50.392;7.482;2023-05-24T01:27:07;101432.22;;;10.32;66.95
4981;BME280;2507;50.392;7.482;2023-05-24T01:29:34;101436.13;;;10.25;67.26
4981;BME280;2507;50.392;7.482;2023-05-24T01:32:00;101441.44;;;10.23;67.49
4981;BME280;2507;50.392;7.482;2023-05-24T01:34:26;101439.16;;;10.17;67.90
4981;BME280;2507;50.392;7.482;2023-05-24T01:36:51;101441.50;;;10.06;68.39
4981;BME280;2507;50.392;7.482;2023-05-24T01:39:18;101438.09;;;10.04;68.45
4981;BME280;2507;50.392;7.482;2023-05-24T01:44:46;101435.56;;;10.03;69.03
4981;BME280;2507;50.392;7.482;2023-05-24T01:49:49;101440.88;;;9.86;69.33
4981;BME280;2507;50.392;7.482;2023-05-24T01:52:16;101447.38;;;9.79;69.70
4981;BME280;2507;50.392;7.482;2023-05-24T01:54:46;101452.94;;;9.73;69.65
4981;BME280;2507;50.392;7.482;2023-05-24T01:57:14;101459.22;;;9.70;69.86
4981;BME280;2507;50.392;7.482;2023-05-24T01:59:42;101462.75;;;9.69;69.86
4981;BME280;2507;50.392;7.482;2023-05-24T02:02:09;101455.56;;;9.73;69.77
4981;BME280;2507;50.392;7.482;2023-05-24T02:04:35;101444.00;;;9.77;69.26
4981;BME280;2507;50.392;7.482;2023-05-24T02:07:00;101448.47;;;9.75;69.52
4981;BME280;2507;50.392;7.482;2023-05-24T02:09:26;101441.97;;;9.82;69.02
4981;BME280;2507;50.392;7.482;2023-05-24T02:11:51;101441.16;;;9.81;68.79
4981;BME280;2507;50.392;7.482;2023-05-24T02:14:16;101443.91;;;9.78;68.73
4981;BME280;2507;50.392;7.482;2023-05-24T02:16:44;101448.66;;;9.72;68.92
4981;BME280;2507;50.392;7.482;2023-05-24T02:19:11;101450.34;;;9.73;68.52
4981;BME280;2507;50.392;7.482;2023-05-24T02:21:37;101455.38;;;9.60;68.70
4981;BME280;2507;50.392;7.482;2023-05-24T02:24:02;101461.78;;;9.55;69.07
4981;BME280;2507;50.392;7.482;2023-05-24T02:26:28;101460.03;;;9.55;69.20
4981;BME280;2507;50.392;7.482;2023-05-24T02:28:53;101460.72;;;9.59;68.96
4981;BME280;2507;50.392;7.482;2023-05-24T02:31:18;101459.84;;;9.58;68.71
4981;BME280;2507;50.392;7.482;2023-05-24T02:33:44;101455.81;;;9.53;68.65
4981;BME280;2507;50.392;7.482;2023-05-24T02:36:09;101449.03;;;9.49;68.69
4981;BME280;2507;50.392;7.482;2023-05-24T02:38:35;101448.50;;;9.42;69.17
4981;BME280;2507;50.392;7.482;2023-05-24T02:41:01;101446.56;;;9.46;69.01
4981;BME280;2507;50.392;7.482;2023-05-24T02:43:27;101441.41;;;9.44;69.25
4981;BME280;2507;50.392;7.482;2023-05-24T02:45:52;101444.97;;;9.43;69.96
4981;BME280;2507;50.392;7.482;2023-05-24T02:48:17;101438.09;;;9.41;70.56
4981;BME280;2507;50.392;7.482;2023-05-24T02:50:43;101431.69;;;9.46;70.92
4981;BME280;2507;50.392;7.482;2023-05-24T02:53:08;101435.66;;;9.38;71.44
4981;BME280;2507;50.392;7.482;2023-05-24T02:55:33;101429.19;;;9.27;71.71
4981;BME280;2507;50.392;7.482;2023-05-24T02:57:59;101439.16;;;9.21;72.01
4981;BME280;2507;50.392;7.482;2023-05-24T03:00:25;101433.75;;;9.24;72.31
4981;BME280;2507;50.392;7.482;2023-05-24T03:02:50;101433.31;;;9.16;72.64
4981;BME280;2507;50.392;7.482;2023-05-24T03:05:16;101434.22;;;9.15;73.05
4981;BME280;2507;50.392;7.482;2023-05-24T03:07:42;101431.28;;;9.21;72.95
4981;BME280;2507;50.392;7.482;2023-05-24T03:10:07;101439.16;;;9.21;72.67
4981;BME280;2507;50.392;7.482;2023-05-24T03:12:33;101431.59;;;9.15;72.97
4981;BME280;2507;50.392;7.482;2023-05-24T03:14:58;101434.09;;;9.01;73.79
4981;BME280;2507;50.392;7.482;2023-05-24T03:17:23;101432.94;;;8.89;74.61
4981;BME280;2507;50.392;7.482;2023-05-24T03:19:49;101431.38;;;9.02;74.29
4981;BME280;2507;50.392;7.482;2023-05-24T03:22:15;101428.84;;;9.01;74.08
4981;BME280;2507;50.392;7.482;2023-05-24T03:24:40;101428.38;;;8.93;74.41
4981;BME280;2507;50.392;7.482;2023-05-24T03:27:05;101427.47;;;8.94;74.39
4981;BME280;2507;50.392;7.482;2023-05-24T03:29:30;101430.19;;;8.92;74.26
4981;BME280;2507;50.392;7.482;2023-05-24T03:31:56;101431.06;;;8.91;74.32
4981;BME280;2507;50.392;7.482;2023-05-24T03:34:21;101439.00;;;8.90;74.60
4981;BME280;2507;50.392;7.482;2023-05-24T03:36:47;101438.09;;;8.91;74.21
4981;BME280;2507;50.392;7.482;2023-05-24T03:39:12;101445.03;;;8.92;73.97
4981;BME280;2507;50.392;7.482;2023-05-24T03:41:38;101442.63;;;8.87;74.49
4981;BME280;2507;50.392;7.482;2023-05-24T03:44:03;101440.66;;;8.92;73.72
4981;BME280;2507;50.392;7.482;2023-05-24T03:46:28;101437.16;;;8.92;73.74
4981;BME280;2507;50.392;7.482;2023-05-24T03:48:54;101443.25;;;8.92;73.76
4981;BME280;2507;50.392;7.482;2023-05-24T03:51:19;101433.22;;;9.00;73.39
4981;BME280;2507;50.392;7.482;2023-05-24T03:53:47;101438.56;;;8.99;73.62
4981;BME280;2507;50.392;7.482;2023-05-24T03:56:12;101443.41;;;9.06;73.22
4981;BME280;2507;50.392;7.482;2023-05-24T03:58:38;101449.31;;;9.10;73.38
4981;BME280;2507;50.392;7.482;2023-05-24T04:01:03;101447.22;;;9.34;72.43
4981;BME280;2507;50.392;7.482;2023-05-24T04:03:28;101451.50;;;9.35;72.01
4981;BME280;2507;50.392;7.482;2023-05-24T04:05:54;101453.38;;;9.33;72.24
4981;BME280;2507;50.392;7.482;2023-05-24T04:08:19;101455.59;;;9.40;71.44
4981;BME280;2507;50.392;7.482;2023-05-24T04:10:44;101470.75;;;9.18;71.58
4981;BME280;2507;50.392;7.482;2023-05-24T04:13:10;101473.75;;;9.10;71.90
4981;BME280;2507;50.392;7.482;2023-05-24T04:15:36;101473.41;;;9.34;72.29
4981;BME280;2507;50.392;7.482;2023-05-24T04:18:04;101468.72;;;9.88;71.20
4981;BME280;2507;50.392;7.482;2023-05-24T04:20:30;101472.38;;;10.93;70.35
4981;BME280;2507;50.392;7.482;2023-05-24T04:22:55;101472.13;;;11.84;66.18
4981;BME280;2507;50.392;7.482;2023-05-24T04:25:21;101464.25;;;13.04;63.44
4981;BME280;2507;50.392;7.482;2023-05-24T04:27:47;101453.25;;;13.98;59.40
4981;BME280;2507;50.392;7.482;2023-05-24T04:30:13;101446.00;;;14.49;56.43
4981;BME280;2507;50.392;7.482;2023-05-24T04:32:40;101446.00;;;14.73;54.59
4981;BME280;2507;50.392;7.482;2023-05-24T04:35:05;101449.25;;;15.11;54.02
4981;BME280;2507;50.392;7.482;2023-05-24T04:37:32;101445.63;;;15.47;53.50
4981;BME280;2507;50.392;7.482;2023-05-24T04:39:57;101443.94;;;16.01;51.51
4981;BME280;2507;50.392;7.482;2023-05-24T04:42:23;101452.28;;;16.50;50.56
4981;BME280;2507;50.392;7.482;2023-05-24T04:44:48;101451.66;;;16.78;49.30
4981;BME280;2507;50.392;7.482;2023-05-24T04:47:14;101461.16;;;17.12;48.15
4981;BME280;2507;50.392;7.482;2023-05-24T04:49:40;101462.03;;;17.64;46.93
4981;BME280;2507;50.392;7.482;2023-05-24T04:52:05;101454.13;;;17.73;46.02
4981;BME280;2507;50.392;7.482;2023-05-24T04:54:32;101459.84;;;17.78;45.59
4981;BME280;2507;50.392;7.482;2023-05-24T04:56:57;101451.88;;;18.67;44.46
4981;BME280;2507;50.392;7.482;2023-05-24T04:59:23;101445.50;;;19.35;43.45
4981;BME280;2507;50.392;7.482;2023-05-24T05:01:48;101453.91;;;19.77;41.80
4981;BME280;2507;50.392;7.482;2023-05-24T05:04:14;101454.03;;;20.39;40.23
4981;BME280;2507;50.392;7.482;2023-05-24T05:06:40;101467.81;;;20.52;39.39
4981;BME280;2507;50.392;7.482;2023-05-24T05:09:07;101473.59;;;20.30;40.35
4981;BME280;2507;50.392;7.482;2023-05-24T05:11:35;101468.34;;;19.38;41.42
4981;BME280;2507;50.392;7.482;2023-05-24T05:14:00;101479.81;;;19.19;42.03
4981;BME280;2507;50.392;7.482;2023-05-24T05:16:26;101467.47;;;19.56;41.79
4981;BME280;2507;50.392;7.482;2023-05-24T05:18:51;101476.03;;;20.23;40.46
4981;BME280;2507;50.392;7.482;2023-05-24T05:21:17;101487.09;;;19.82;40.75
4981;BME280;2507;50.392;7.482;2023-05-24T05:23:43;101482.19;;;19.22;41.28
4981;BME280;2507;50.392;7.482;2023-05-24T05:26:08;101481.94;;;18.96;43.51
4981;BME280;2507;50.392;7.482;2023-05-24T05:28:34;101471.44;;;19.04;42.91
4981;BME280;2507;50.392;7.482;2023-05-24T05:30:59;101465.41;;;19.12;42.84
4981;BME280;2507;50.392;7.482;2023-05-24T05:33:25;101475.50;;;19.18;41.59
4981;BME280;2507;50.392;7.482;2023-05-24T05:35:50;101482.47;;;19.28;41.58
4981;BME280;2507;50.392;7.482;2023-05-24T05:38:15;101477.31;;;18.70;42.18
4981;BME280;2507;50.392;7.482;2023-05-24T05:40:41;101482.09;;;18.76;42.62
4981;BME280;2507;50.392;7.482;2023-05-24T05:43:06;101492.72;;;19.04;42.00
4981;BME280;2507;50.392;7.482;2023-05-24T05:45:33;101479.69;;;18.82;40.95
4981;BME280;2507;50.392;7.482;2023-05-24T05:47:58;101497.66;;;18.31;43.32
4981;BME280;2507;50.392;7.482;2023-05-24T05:50:23;101488.53;;;18.24;42.94
4981;BME280;2507;50.392;7.482;2023-05-24T05:52:48;101492.66;;;18.38;42.95
4981;BME280;2507;50.392;7.482;2023-05-24T05:55:14;101507.28;;;17.83;42.83
4981;BME280;2507;50.392;7.482;2023-05-24T05:57:39;101512.72;;;17.81;43.83
4981;BME280;2507;50.392;7.482;2023-05-24T06:00:05;101506.34;;;17.63;43.38
4981;BME280;2507;50.392;7.482;2023-05-24T06:02:31;101508.72;;;17.25;44.76
4981;BME280;2507;50.392;7.482;2023-05-24T06:04:56;101512.13;;;17.36;45.04
4981;BME280;2507;50.392;7.482;2023-05-24T06:07:21;101506.72;;;17.59;43.60
4981;BME280;2507;50.392;7.482;2023-05-24T06:09:47;101505.31;;;17.85;42.90
4981;BME280;2507;50.392;7.482;2023-05-24T06:12:12;101511.78;;;18.31;41.14
4981;BME280;2507;50.392;7.482;2023-05-24T06:14:37;101491.47;;;18.89;41.50
4981;BME280;2507;50.392;7.482;2023-05-24T06:17:04;101498.22;;;18.25;43.14
4981;BME280;2507;50.392;7.482;2023-05-24T06:19:29;101502.66;;;17.85;42.13
4981;BME280;2507;50.392;7.482;2023-05-24T06:21:55;101504.50;;;17.64;43.61
4981;BME280;2507;50.392;7.482;2023-05-24T06:24:21;101503.78;;;18.22;43.81
4981;BME280;2507;50.392;7.482;2023-05-24T06:26:47;101507.59;;;18.38;42.08
4981;BME280;2507;50.392;7.482;2023-05-24T06:29:13;101504.66;;;18.91;41.76
4981;BME280;2507;50.392;7.482;2023-05-24T06:31:38;101506.84;;;19.53;41.20
4981;BME280;2507;50.392;7.482;2023-05-24T06:34:04;101497.91;;;18.96;40.58
4981;BME280;2507;50.392;7.482;2023-05-24T06:36:29;101495.38;;;19.04;40.53
4981;BME280;2507;50.392;7.482;2023-05-24T06:38:58;101499.56;;;18.78;41.19
4981;BME280;2507;50.392;7.482;2023-05-24T06:41:23;101496.38;;;18.94;40.63
4981;BME280;2507;50.392;7.482;2023-05-24T06:43:48;101479.03;;;20.38;39.50
4981;BME280;2507;50.392;7.482;2023-05-24T06:46:14;101476.97;;;21.97;36.54
4981;BME280;2507;50.392;7.482;2023-05-24T06:48:39;101477.50;;;20.53;36.36
4981;BME280;2507;50.392;7.482;2023-05-24T06:51:05;101471.47;;;19.70;38.99
4981;BME280;2507;50.392;7.482;2023-05-24T06:53:31;101485.88;;;18.83;39.40
4981;BME280;2507;50.392;7.482;2023-05-24T06:55:56;101478.84;;;18.53;40.63
4981;BME280;2507;50.392;7.482;2023-05-24T06:58:21;101479.41;;;19.23;39.43
4981;BME280;2507;50.392;7.482;2023-05-24T07:00:47;101470.75;;;20.31;37.61
4981;BME280;2507;50.392;7.482;2023-05-24T07:03:12;101474.94;;;21.65;35.21
4981;BME280;2507;50.392;7.482;2023-05-24T07:05:38;101472.41;;;21.12;35.10
4981;BME280;2507;50.392;7.482;2023-05-24T07:08:03;101469.00;;;20.40;36.11
4981;BME280;2507;50.392;7.482;2023-05-24T07:10:29;101474.41;;;20.03;37.73
4981;BME280;2507;50.392;7.482;2023-05-24T07:12:54;101485.13;;;20.66;36.62
4981;BME280;2507;50.392;7.482;2023-05-24T07:15:20;101493.50;;;20.53;36.08
4981;BME280;2507;50.392;7.482;2023-05-24T07:17:45;101511.19;;;19.06;39.25
4981;BME280;2507;50.392;7.482;2023-05-24T07:20:12;101513.00;;;19.24;38.64
4981;BME280;2507;50.392;7.482;2023-05-24T07:22:38;101515.50;;;19.64;37.88
4981;BME280;2507;50.392;7.482;2023-05-24T07:25:03;101514.06;;;19.70;37.92
4981;BME280;2507;50.392;7.482;2023-05-24T07:27:29;101510.06;;;19.47;38.66
4981;BME280;2507;50.392;7.482;2023-05-24T07:29:55;101518.38;;;18.96;38.00
4981;BME280;2507;50.392;7.482;2023-05-24T07:32:20;101522.84;;;19.33;38.42
4981;BME280;2507;50.392;7.482;2023-05-24T07:34:45;101521.78;;;20.64;36.59
4981;BME280;2507;50.392;7.482;2023-05-24T07:37:11;101523.53;;;20.73;35.86
4981;BME280;2507;50.392;7.482;2023-05-24T07:39:36;101528.31;;;20.34;37.19
4981;BME280;2507;50.392;7.482;2023-05-24T07:42:03;101533.63;;;20.96;36.98
4981;BME280;2507;50.392;7.482;2023-05-24T07:44:28;101524.00;;;20.68;35.33
4981;BME280;2507;50.392;7.482;2023-05-24T07:46:54;101521.28;;;19.41;37.19
4981;BME280;2507;50.392;7.482;2023-05-24T07:49:20;101512.16;;;18.57;40.12
4981;BME280;2507;50.392;7.482;2023-05-24T07:51:46;101530.16;;;18.44;40.98
4981;BME280;2507;50.392;7.482;2023-05-24T07:54:12;101521.91;;;18.07;42.12
4981;BME280;2507;50.392;7.482;2023-05-24T07:56:40;101521.78;;;17.38;43.10
4981;BME280;2507;50.392;7.482;2023-05-24T07:59:05;101521.13;;;16.72;45.08
4981;BME280;2507;50.392;7.482;2023-05-24T08:01:33;101525.84;;;16.47;44.10
4981;BME280;2507;50.392;7.482;2023-05-24T08:03:59;101542.38;;;16.50;43.95
4981;BME280;2507;50.392;7.482;2023-05-24T08:06:25;101522.00;;;16.40;43.23
4981;BME280;2507;50.392;7.482;2023-05-24T08:08:51;101523.56;;;16.42;44.22
4981;BME280;2507;50.392;7.482;2023-05-24T08:11:17;101524.09;;;16.14;44.81
4981;BME280;2507;50.392;7.482;2023-05-24T08:13:43;101523.47;;;15.77;46.02
4981;BME280;2507;50.392;7.482;2023-05-24T08:16:09;101524.34;;;16.00;45.32
4981;BME280;2507;50.392;7.482;2023-05-24T08:18:34;101526.94;;;16.11;45.48
4981;BME280;2507;50.392;7.482;2023-05-24T08:21:00;101526.47;;;15.84;46.48
4981;BME280;2507;50.392;7.482;2023-05-24T08:23:25;101532.38;;;15.30;46.99
4981;BME280;2507;50.392;7.482;2023-05-24T08:25:51;101533.69;;;15.25;48.36
4981;BME280;2507;50.392;7.482;2023-05-24T08:28:17;101529.56;;;15.45;47.84
4981;BME280;2507;50.392;7.482;2023-05-24T08:30:42;101530.31;;;15.58;48.30
4981;BME280;2507;50.392;7.482;2023-05-24T08:33:08;101543.09;;;15.97;47.58
4981;BME280;2507;50.392;7.482;2023-05-24T08:35:33;101540.66;;;15.61;46.88
4981;BME280;2507;50.392;7.482;2023-05-24T08:38:00;101547.03;;;15.23;46.01
4981;BME280;2507;50.392;7.482;2023-05-24T08:40:25;101534.22;;;15.06;47.40
4981;BME280;2507;50.392;7.482;2023-05-24T08:42:51;101543.00;;;15.07;46.53
4981;BME280;2507;50.392;7.482;2023-05-24T08:45:17;101546.22;;;15.34;47.80
4981;BME280;2507;50.392;7.482;2023-05-24T08:47:43;101538.28;;;15.91;44.81
4981;BME280;2507;50.392;7.482;2023-05-24T08:50:09;101530.69;;;15.86;44.68
4981;BME280;2507;50.392;7.482;2023-05-24T08:52:35;101544.19;;;15.83;46.13
4981;BME280;2507;50.392;7.482;2023-05-24T08:55:03;101531.31;;;16.23;45.08
4981;BME280;2507;50.392;7.482;2023-05-24T08:57:30;101523.06;;;16.59;45.71
4981;BME280;2507;50.392;7.482;2023-05-24T08:59:56;101524.97;;;16.68;45.61
4981;BME280;2507;50.392;7.482;2023-05-24T09:02:22;101517.91;;;16.89;43.07
4981;BME280;2507;50.392;7.482;2023-05-24T09:04:49;101512.66;;;17.72;40.72
4981;BME280;2507;50.392;7.482;2023-05-24T09:07:20;101512.31;;;17.86;40.43
4981;BME280;2507;50.392;7.482;2023-05-24T09:10:00;101508.75;;;18.06;38.91
4981;BME280;2507;50.392;7.482;2023-05-24T09:12:30;101510.59;;;18.15;39.22
4981;BME280;2507;50.392;7.482;2023-05-24T09:15:00;101509.63;;;17.76;38.88
4981;BME280;2507;50.392;7.482;2023-05-24T09:17:26;101503.53;;;17.95;39.36
4981;BME280;2507;50.392;7.482;2023-05-24T09:19:51;101497.72;;;17.71;38.98
4981;BME280;2507;50.392;7.482;2023-05-24T09:22:17;101494.56;;;17.56;38.95
4981;BME280;2507;50.392;7.482;2023-05-24T09:24:48;101490.44;;;18.03;42.06
4981;BME280;2507;50.392;7.482;2023-05-24T09:27:18;101482.53;;;17.82;41.34
4981;BME280;2507;50.392;7.482;2023-05-24T09:29:47;101483.97;;;17.66;41.79
4981;BME280;2507;50.392;7.482;2023-05-24T09:32:16;101494.22;;;17.70;40.30
4981;BME280;2507;50.392;7.482;2023-05-24T09:34:43;101473.91;;;17.60;39.74
4981;BME280;2507;50.392;7.482;2023-05-24T09:37:17;101472.22;;;17.59;39.36
4981;BME280;2507;50.392;7.482;2023-05-24T09:39:43;101475.19;;;17.65;40.72
4981;BME280;2507;50.392;7.482;2023-05-24T09:42:14;101455.91;;;17.73;42.08
4981;BME280;2507;50.392;7.482;2023-05-24T09:44:40;101464.81;;;17.62;40.73
4981;BME280;2507;50.392;7.482;2023-05-24T09:47:06;101473.84;;;17.50;40.92
4981;BME280;2507;50.392;7.482;2023-05-24T09:49:35;101474.06;;;17.68;42.59
4981;BME280;2507;50.392;7.482;2023-05-24T09:52:01;101470.91;;;17.53;41.83
4981;BME280;2507;50.392;7.482;2023-05-24T09:54:26;101478.25;;;17.19;44.14
4981;BME280;2507;50.392;7.482;2023-05-24T09:56:52;101466.13;;;16.85;43.73
4981;BME280;2507;50.392;7.482;2023-05-24T09:59:17;101457.31;;;16.53;43.19
4981;BME280;2507;50.392;7.482;2023-05-24T10:01:44;101458.56;;;16.38;43.79
4981;BME280;2507;50.392;7.482;2023-05-24T10:04:10;101461.41;;;16.46;43.81
4981;BME280;2507;50.392;7.482;2023-05-24T10:06:36;101477.63;;;17.36;43.32
4981;BME280;2507;50.392;7.482;2023-05-24T10:09:03;101452.16;;;18.15;40.83
4981;BME280;2507;50.392;7.482;2023-05-24T10:11:32;101453.63;;;18.38;38.14
4981;BME280;2507;50.392;7.482;2023-05-24T10:13:58;101474.00;;;18.28;39.38
4981;BME280;2507;50.392;7.482;2023-05-24T10:16:24;101461.84;;;17.76;39.88
4981;BME280;2507;50.392;7.482;2023-05-24T10:18:49;101455.44;;;17.58;40.25
4981;BME280;2507;50.392;7.482;2023-05-24T10:21:16;101449.88;;;17.41;39.70
4981;BME280;2507;50.392;7.482;2023-05-24T10:23:50;101450.81;;;17.51;39.51
4981;BME280;2507;50.392;7.482;2023-05-24T10:26:16;101449.97;;;17.50;40.03
4981;BME280;2507;50.392;7.482;2023-05-24T10:28:45;101446.78;;;17.35;39.21
4981;BME280;2507;50.392;7.482;2023-05-24T10:31:14;101443.81;;;17.50;39.47
4981;BME280;2507;50.392;7.482;2023-05-24T10:33:43;101435.28;;;17.86;38.01
4981;BME280;2507;50.392;7.482;2023-05-24T10:36:10;101432.38;;;17.98;37.45
4981;BME280;2507;50.392;7.482;2023-05-24T10:38:38;101428.25;;;18.05;37.99
4981;BME280;2507;50.392;7.482;2023-05-24T10:41:05;101435.19;;;17.57;39.01
4981;BME280;2507;50.392;7.482;2023-05-24T10:43:33;101445.81;;;16.95;39.07
4981;BME280;2507;50.392;7.482;2023-05-24T10:45:58;101435.91;;;16.97;41.37
4981;BME280;2507;50.392;7.482;2023-05-24T10:50:52;101441.16;;;17.08;39.92
4981;BME280;2507;50.392;7.482;2023-05-24T10:53:18;101451.22;;;17.35;40.97
4981;BME280;2507;50.392;7.482;2023-05-24T10:56:00;101435.22;;;17.46;39.58
4981;BME280;2507;50.392;7.482;2023-05-24T11:00:57;101439.28;;;18.20;40.09
4981;BME280;2507;50.392;7.482;2023-05-24T11:03:22;101422.94;;;18.24;38.67
4981;BME280;2507;50.392;7.482;2023-05-24T11:08:38;101423.56;;;17.88;40.73
4981;BME280;2507;50.392;7.482;2023-05-24T11:11:10;101425.69;;;17.94;39.91
4981;BME280;2507;50.392;7.482;2023-05-24T11:13:37;101417.28;;;17.89;40.41
4981;BME280;2507;50.392;7.482;2023-05-24T11:16:03;101445.69;;;17.17;39.06
4981;BME280;2507;50.392;7.482;2023-05-24T11:18:29;101424.84;;;17.13;41.31
4981;BME280;2507;50.392;7.482;2023-05-24T11:20:55;101430.56;;;17.29;41.06
4981;BME280;2507;50.392;7.482;2023-05-24T11:23:21;101431.94;;;17.54;40.29
4981;BME280;2507;50.392;7.482;2023-05-24T11:25:47;101423.13;;;17.53;39.69
4981;BME280;2507;50.392;7.482;2023-05-24T11:28:13;101421.34;;;17.33;41.86
4981;BME280;2507;50.392;7.482;2023-05-24T11:30:40;101435.38;;;17.45;40.16
4981;BME280;2507;50.392;7.482;2023-05-24T11:33:13;101431.91;;;17.03;42.21
4981;BME280;2507;50.392;7.482;2023-05-24T11:35:38;101428.59;;;16.90;42.13
4981;BME280;2507;50.392;7.482;2023-05-24T11:38:09;101423.81;;;16.84;42.82
4981;BME280;2507;50.392;7.482;2023-05-24T11:40:36;101422.59;;;17.08;43.32
4981;BME280;2507;50.392;7.482;2023-05-24T11:43:05;101420.31;;;17.04;40.75
4981;BME280;2507;50.392;7.482;2023-05-24T11:45:30;101416.66;;;16.64;41.81
4981;BME280;2507;50.392;7.482;2023-05-24T11:47:56;101422.94;;;16.94;42.52
4981;BME280;2507;50.392;7.482;2023-05-24T11:50:24;101419.16;;;16.97;42.08
4981;BME280;2507;50.392;7.482;2023-05-24T11:52:50;101412.41;;;17.34;42.03
4981;BME280;2507;50.392;7.482;2023-05-24T11:55:22;101412.56;;;17.63;41.34
4981;BME280;2507;50.392;7.482;2023-05-24T11:57:53;101412.03;;;17.69;39.50
4981;BME280;2507;50.392;7.482;2023-05-24T12:00:25;101412.97;;;17.58;39.61
4981;BME280;2507;50.392;7.482;2023-05-24T12:02:51;101428.22;;;17.56;38.97
4981;BME280;2507;50.392;7.482;2023-05-24T12:05:20;101427.50;;;17.54;39.55
4981;BME280;2507;50.392;7.482;2023-05-24T12:07:46;101410.50;;;17.66;40.18
4981;BME280;2507;50.392;7.482;2023-05-24T12:10:14;101417.50;;;17.67;40.57
4981;BME280;2507;50.392;7.482;2023-05-24T12:12:43;101415.84;;;17.25;40.79
4981;BME280;2507;50.392;7.482;2023-05-24T12:15:11;101414.00;;;17.16;41.30
4981;BME280;2507;50.392;7.482;2023-05-24T12:17:39;101415.22;;;17.12;41.09
4981;BME280;2507;50.392;7.482;2023-05-24T12:20:04;101415.63;;;16.87;41.83
4981;BME280;2507;50.392;7.482;2023-05-24T12:22:30;101411.31;;;16.75;40.34
4981;BME280;2507;50.392;7.482;2023-05-24T12:24:56;101425.69;;;16.72;42.62
4981;BME280;2507;50.392;7.482;2023-05-24T12:27:26;101413.28;;;16.93;42.38
4981;BME280;2507;50.392;7.482;2023-05-24T12:29:51;101413.34;;;17.23;41.23
4981;BME280;2507;50.392;7.482;2023-05-24T12:32:17;101405.31;;;17.44;41.36
4981;BME280;2507;50.392;7.482;2023-05-24T12:34:43;101397.44;;;17.54;39.87
4981;BME280;2507;50.392;7.482;2023-05-24T12:37:09;101409.34;;;17.59;40.58
4981;BME280;2507;50.392;7.482;2023-05-24T12:39:36;101396.94;;;17.69;41.07
4981;BME280;2507;50.392;7.482;2023-05-24T12:42:03;101403.31;;;17.97;41.88
4981;BME280;2507;50.392;7.482;2023-05-24T12:44:29;101392.56;;;18.08;39.12
4981;BME280;2507;50.392;7.482;2023-05-24T12:46:56;101401.50;;;17.97;40.24
4981;BME280;2507;50.392;7.482;2023-05-24T12:49:22;101396.16;;;17.88;39.49
4981;BME280;2507;50.392;7.482;2023-05-24T12:51:48;101392.91;;;17.65;39.55
4981;BME280;2507;50.392;7.482;2023-05-24T12:54:14;101402.31;;;17.49;40.86
4981;BME280;2507;50.392;7.482;2023-05-24T12:56:39;101416.50;;;17.17;42.26
4981;BME280;2507;50.392;7.482;2023-05-24T12:59:05;101402.59;;;17.04;40.71
4981;BME280;2507;50.392;7.482;2023-05-24T13:01:31;101405.47;;;16.92;42.19
4981;BME280;2507;50.392;7.482;2023-05-24T13:03:56;101415.19;;;16.39;42.87
4981;BME280;2507;50.392;7.482;2023-05-24T13:06:23;101394.50;;;16.22;43.75
4981;BME280;2507;50.392;7.482;2023-05-24T13:08:49;101408.00;;;16.19;42.93
4981;BME280;2507;50.392;7.482;2023-05-24T13:11:14;101406.72;;;16.02;43.05
4981;BME280;2507;50.392;7.482;2023-05-24T13:13:40;101406.53;;;15.94;43.08
4981;BME280;2507;50.392;7.482;2023-05-24T13:16:05;101408.91;;;15.97;43.68
4981;BME280;2507;50.392;7.482;2023-05-24T13:18:33;101402.25;;;16.14;43.54
4981;BME280;2507;50.392;7.482;2023-05-24T13:20:58;101406.94;;;16.21;43.29
4981;BME280;2507;50.392;7.482;2023-05-24T13:23:25;101404.28;;;16.21;43.84
4981;BME280;2507;50.392;7.482;2023-05-24T13:25:51;101412.53;;;16.39;44.24